Time;durP1;ratioP1;P1;durP2;ratioP2;P2;SDS_P1;SDS_P2;PMS_P1;PMS_P2;Temp;Humidity;BMP_temperature;BMP_pressure;BME280_temperature;BME280_humidity;BME280_pressure;Samples;Min_cycle;Max_cycle;Signal;HPM_P1;HPM_P2
2021/04/04 00:01:27;;;;;;;22.75;9.07;;;6.20;75.70;;;;;;5019780;28;20060;-75
2021/04/04 00:03:53;;;;;;;31.33;9.77;;;6.20;76.10;;;;;;5033210;28;20033;-75
2021/04/04 00:06:19;;;;;;;30.98;10.02;;;6.20;76.20;;;;;;5032978;28;20021;-75
2021/04/04 00:08:44;;;;;;;29.30;9.30;;;6.20;76.40;;;;;;5030353;28;20113;-71
2021/04/04 00:11:10;;;;;;;27.92;9.82;;;6.20;76.50;;;;;;5045692;28;20104;-75
2021/04/04 00:13:37;;;;;;;27.30;9.45;;;6.10;76.50;;;;;;5030119;28;20045;-75
2021/04/04 00:16:03;;;;;;;30.40;9.63;;;6.10;76.60;;;;;;5033217;28;20454;-71
2021/04/04 00:18:29;;;;;;;27.98;10.18;;;6.10;76.70;;;;;;5032585;28;20132;-72
2021/04/04 00:20:55;;;;;;;27.85;9.68;;;6.10;76.90;;;;;;5032535;28;20104;-72
2021/04/04 00:23:21;;;;;;;28.65;9.45;;;6.00;76.90;;;;;;5032428;28;20030;-71
2021/04/04 00:25:47;;;;;;;34.53;10.07;;;6.00;77.10;;;;;;5032152;28;20095;-75
2021/04/04 00:28:12;;;;;;;28.55;9.73;;;5.90;77.20;;;;;;5032421;28;20026;-71
2021/04/04 00:30:38;;;;;;;37.55;10.40;;;5.90;77.20;;;;;;5032634;28;20056;-71
2021/04/04 00:33:04;;;;;;;33.35;10.38;;;5.90;77.30;;;;;;5032485;28;20112;-72
2021/04/04 00:35:30;;;;;;;35.60;10.02;;;5.90;77.30;;;;;;5032571;28;20025;-75
2021/04/04 00:37:56;;;;;;;32.90;10.90;;;5.90;77.30;;;;;;5031381;28;20053;-71
2021/04/04 00:40:31;;;;;;;31.95;10.32;;;5.90;77.50;;;;;;5032054;28;20033;-71
2021/04/04 00:42:57;;;;;;;28.23;8.98;;;5.80;77.60;;;;;;5030812;28;20060;-71
2021/04/04 00:45:28;;;;;;;25.73;9.73;;;5.80;77.80;;;;;;5035971;28;20468;-75
2021/04/04 00:47:54;;;;;;;28.55;9.38;;;5.80;78.00;;;;;;5032497;28;20423;-71
2021/04/04 00:50:23;;;;;;;38.15;10.35;;;5.70;78.00;;;;;;5032366;28;20548;-71
2021/04/04 00:52:49;;;;;;;37.65;10.40;;;5.70;78.20;;;;;;5021229;28;20022;-71
2021/04/04 00:55:16;;;;;;;24.92;10.70;;;5.60;78.40;;;;;;5041943;28;20021;-71
2021/04/04 00:57:42;;;;;;;33.08;9.85;;;5.60;79.10;;;;;;5023657;28;20026;-71
2021/04/04 01:00:14;;;;;;;30.42;10.50;;;5.60;78.70;;;;;;5032090;28;20104;-75
2021/04/04 01:02:41;;;;;;;28.95;9.88;;;5.60;78.80;;;;;;5032081;28;20021;-71
2021/04/04 01:05:09;;;;;;;29.55;10.18;;;5.60;78.50;;;;;;5032214;28;20029;-71
2021/04/04 01:07:35;;;;;;;29.55;9.23;;;5.60;78.10;;;;;;5030492;28;20018;-71
2021/04/04 01:10:07;;;;;;;31.65;10.30;;;5.70;78.30;;;;;;5031610;28;20544;-71
2021/04/04 01:12:59;;;;;;;29.40;10.20;;;5.70;78.50;;;;;;5030782;28;20484;-71
2021/04/04 01:15:34;;;;;;;28.77;10.02;;;5.70;78.80;;;;;;5032066;28;20419;-71
2021/04/04 01:18:08;;;;;;;31.17;9.73;;;5.70;78.50;;;;;;5029814;28;20022;-75
2021/04/04 01:20:41;;;;;;;37.60;9.73;;;5.60;78.50;;;;;;5030395;28;20044;-76
2021/04/04 01:23:17;;;;;;;33.03;10.15;;;5.60;78.60;;;;;;5017282;28;20488;-75
2021/04/04 01:26:13;;;;;;;27.52;9.95;;;5.50;78.80;;;;;;5030147;28;20044;-71
2021/04/04 01:28:43;;;;;;;34.80;10.68;;;5.40;79.20;;;;;;5031544;28;20113;-75
2021/04/04 01:31:10;;;;;;;26.73;9.55;;;5.40;79.80;;;;;;5021646;28;20120;-75
2021/04/04 01:33:37;;;;;;;30.33;10.35;;;5.30;79.70;;;;;;5035780;28;20104;-71
2021/04/04 01:36:07;;;;;;;39.17;11.38;;;5.30;80.10;;;;;;5035778;28;20121;-75
2021/04/04 01:38:37;;;;;;;29.20;9.45;;;5.20;80.60;;;;;;5034933;28;20030;-74
2021/04/04 01:41:23;;;;;;;34.63;10.15;;;5.20;80.60;;;;;;5021674;28;20128;-75
2021/04/04 01:43:51;;;;;;;28.00;10.52;;;5.10;80.40;;;;;;5033573;28;20512;-71
2021/04/04 01:46:19;;;;;;;30.52;10.65;;;5.20;80.50;;;;;;5035874;28;20030;-71
2021/04/04 01:48:45;;;;;;;32.70;10.80;;;5.20;80.20;;;;;;5035515;28;20427;-71
2021/04/04 01:51:12;;;;;;;27.77;9.82;;;5.20;80.00;;;;;;5035170;28;20148;-71
2021/04/04 01:53:40;;;;;;;28.38;10.45;;;5.30;79.80;;;;;;5034393;28;20477;-71
2021/04/04 01:56:06;;;;;;;36.92;10.05;;;5.30;79.80;;;;;;5035926;28;20112;-75
2021/04/04 01:58:33;;;;;;;32.85;10.05;;;5.40;79.40;;;;;;5021956;28;20033;-71
2021/04/04 02:01:00;;;;;;;37.50;11.38;;;5.40;79.30;;;;;;5035244;28;20052;-72
2021/04/04 02:03:26;;;;;;;30.75;10.70;;;5.40;79.40;;;;;;5034937;28;20484;-71
2021/04/04 02:05:53;;;;;;;29.98;10.13;;;5.30;79.60;;;;;;5035517;28;20097;-71
2021/04/04 02:08:22;;;;;;;31.80;10.52;;;5.30;79.80;;;;;;5034277;28;20108;-75
2021/04/04 02:10:49;;;;;;;27.58;11.10;;;5.20;80.10;;;;;;5035063;28;20041;-75
2021/04/04 02:13:17;;;;;;;46.03;11.60;;;5.20;80.10;;;;;;5032090;28;20080;-71
2021/04/04 02:15:44;;;;;;;36.20;10.63;;;5.20;80.60;;;;;;5036589;28;20040;-71
2021/04/04 02:18:11;;;;;;;40.88;11.52;;;5.10;80.60;;;;;;5035121;28;20029;-71
2021/04/04 02:20:39;;;;;;;30.25;10.23;;;5.10;81.10;;;;;;5035325;28;20029;-71
2021/04/04 02:23:07;;;;;;;33.80;10.18;;;5.10;80.80;;;;;;5034470;28;20034;-75
2021/04/04 02:25:34;;;;;;;32.05;10.82;;;5.10;80.80;;;;;;5034461;28;20024;-75
2021/04/04 02:28:00;;;;;;;29.67;10.32;;;5.10;81.10;;;;;;5034841;28;20030;-71
2021/04/04 02:30:27;;;;;;;34.03;10.45;;;5.10;80.90;;;;;;5021768;28;20093;-75
2021/04/04 02:33:11;;;;;;;32.63;10.88;;;5.10;80.80;;;;;;5034735;28;20057;-71
2021/04/04 02:35:42;;;;;;;30.77;10.77;;;5.10;80.80;;;;;;5021524;28;20026;-75
2021/04/04 02:38:15;;;;;;;37.78;10.77;;;5.10;81.50;;;;;;5032500;28;20022;-71
2021/04/04 02:40:42;;;;;;;;;;;5.10;81.10;;;;;;5035134;28;20028;-71
2021/04/04 02:43:14;;;;;;;35.28;11.05;;;5.10;81.10;;;;;;5034182;28;19909;-71
2021/04/04 02:45:42;;;;;;;32.30;10.80;;;5.00;81.20;;;;;;5034454;28;20033;-71
2021/04/04 02:48:15;;;;;;;26.95;10.20;;;5.00;81.30;;;;;;5042401;28;20045;-71
2021/04/04 02:50:42;;;;;;;28.52;10.15;;;5.00;81.00;;;;;;5014950;28;20523;-71
2021/04/04 02:53:09;;;;;;;33.22;9.75;;;5.00;81.40;;;;;;5018701;28;20040;-72
2021/04/04 02:55:37;;;;;;;30.15;10.63;;;5.00;81.20;;;;;;5034651;28;20030;-71
2021/04/04 02:58:07;;;;;;;26.83;10.18;;;5.00;81.10;;;;;;5034064;28;20439;-71
2021/04/04 03:00:39;;;;;;;28.77;10.48;;;5.00;81.10;;;;;;5034497;28;20400;-75
2021/04/04 03:03:07;;;;;;;35.20;11.77;;;4.90;81.10;;;;;;5021419;28;20026;-75
2021/04/04 03:05:34;;;;;;;37.50;10.55;;;4.90;81.30;;;;;;5034264;28;20052;-71
2021/04/04 03:08:06;;;;;;;28.50;10.82;;;4.90;81.50;;;;;;5032849;28;20017;-71
2021/04/04 03:10:33;;;;;;;35.33;11.40;;;4.80;81.60;;;;;;5034094;28;20041;-75
2021/04/04 03:13:00;;;;;;;34.20;10.35;;;4.70;82.00;;;;;;5033886;28;20268;-75
2021/04/04 03:15:27;;;;;;;33.13;10.93;;;4.70;82.00;;;;;;5031082;28;20511;-75
2021/04/04 03:17:54;;;;;;;32.83;10.50;;;4.70;82.10;;;;;;5035109;28;20107;-71
2021/04/04 03:20:21;;;;;;;31.60;10.80;;;4.70;82.30;;;;;;5033930;28;20036;-71
2021/04/04 03:22:49;;;;;;;35.85;11.50;;;4.70;82.30;;;;;;5033487;28;20025;-72
2021/04/04 03:25:17;;;;;;;31.98;10.80;;;4.70;82.60;;;;;;5022854;28;20022;-71
2021/04/04 03:27:44;;;;;;;35.10;11.07;;;4.70;82.40;;;;;;5026865;28;20029;-75
2021/04/04 03:30:57;;;;;;;30.63;10.40;;;4.70;82.50;;;;;;5023735;28;20036;-75
2021/04/04 03:33:00;;;;;;;38.13;11.75;;;4.70;82.60;;;;;;5029470;28;20412;-71
2021/04/04 03:35:27;;;;;;;34.53;11.10;;;4.70;82.70;;;;;;5031752;28;20056;-75
2021/04/04 03:37:53;;;;;;;34.95;10.88;;;4.70;82.70;;;;;;5035648;28;20506;-75
2021/04/04 03:40:20;;;;;;;35.42;11.05;;;4.70;82.80;;;;;;5033516;28;20021;-71
2021/04/04 03:42:47;;;;;;;38.13;11.45;;;4.60;82.70;;;;;;5030983;28;20108;-71
2021/04/04 03:45:15;;;;;;;42.67;11.00;;;4.60;83.00;;;;;;5033385;28;20396;-71
2021/04/04 03:47:41;;;;;;;35.20;11.50;;;4.60;83.10;;;;;;5033491;28;20108;-71
2021/04/04 03:50:09;;;;;;;36.28;10.95;;;4.60;83.40;;;;;;5033136;28;20017;-71
2021/04/04 03:52:36;;;;;;;32.28;11.57;;;4.50;83.30;;;;;;5032395;28;20063;-71
2021/04/04 03:55:02;;;;;;;30.92;11.07;;;4.50;83.40;;;;;;5033113;28;20099;-75
2021/04/04 03:57:29;;;;;;;41.00;12.27;;;4.50;83.60;;;;;;5032390;28;20117;-71
2021/04/04 03:59:56;;;;;;;28.45;11.50;;;4.50;83.60;;;;;;5029990;28;20079;-75
2021/04/04 04:02:23;;;;;;;30.85;11.10;;;4.50;83.50;;;;;;5022094;28;20025;-71
2021/04/04 04:04:50;;;;;;;32.25;10.68;;;4.50;83.50;;;;;;5029849;28;20030;-75
2021/04/04 04:07:17;;;;;;;34.97;11.52;;;4.40;83.50;;;;;;5014824;28;20022;-71
2021/04/04 04:09:43;;;;;;;36.42;11.15;;;4.40;83.70;;;;;;5035758;28;20044;-71
2021/04/04 04:12:09;;;;;;;36.55;11.98;;;4.40;83.90;;;;;;5042764;28;20096;-71
2021/04/04 04:14:36;;;;;;;32.03;11.70;;;4.30;84.60;;;;;;5031407;28;20022;-71
2021/04/04 04:17:05;;;;;;;35.28;11.60;;;4.20;84.70;;;;;;5034479;28;20057;-75
2021/04/04 04:19:30;;;;;;;39.08;12.35;;;4.20;85.10;;;;;;5031481;28;20026;-75
2021/04/04 04:21:57;;;;;;;33.80;11.82;;;4.20;85.20;;;;;;5031498;28;20032;-75
2021/04/04 04:24:24;;;;;;;36.75;11.80;;;4.20;85.50;;;;;;5031678;28;20071;-75
2021/04/04 04:26:50;;;;;;;43.10;12.48;;;4.20;85.20;;;;;;5031215;28;20053;-71
2021/04/04 04:29:18;;;;;;;34.15;12.70;;;4.30;85.20;;;;;;5032771;28;20041;-71
2021/04/04 04:31:47;;;;;;;34.70;12.38;;;4.30;85.20;;;;;;5032614;28;20029;-75
2021/04/04 04:34:14;;;;;;;36.88;11.98;;;4.30;85.00;;;;;;5032346;28;20500;-75
2021/04/04 04:36:41;;;;;;;35.78;12.25;;;4.30;84.90;;;;;;5030333;28;20087;-75
2021/04/04 04:39:10;;;;;;;47.55;13.52;;;4.20;84.80;;;;;;5031667;28;20028;-71
2021/04/04 04:41:42;;;;;;;31.15;12.05;;;4.30;85.00;;;;;;5032319;28;20502;-71
2021/04/04 04:44:08;;;;;;;40.05;12.38;;;4.30;84.80;;;;;;5032424;28;20014;-71
2021/04/04 04:46:37;;;;;;;36.05;12.63;;;4.30;85.40;;;;;;5032644;28;20079;-75
2021/04/04 04:49:05;;;;;;;41.97;13.10;;;4.30;85.10;;;;;;5036289;28;20124;-71
2021/04/04 04:51:31;;;;;;;40.60;12.93;;;4.30;85.10;;;;;;5032043;28;20022;-75
2021/04/04 04:53:57;;;;;;;36.90;12.27;;;4.30;85.00;;;;;;5030394;28;20124;-71
2021/04/04 04:56:23;;;;;;;38.40;13.60;;;4.30;85.00;;;;;;5030932;28;20065;-75
2021/04/04 04:58:50;;;;;;;27.02;12.02;;;4.30;85.20;;;;;;5032488;28;20069;-72
2021/04/04 05:01:23;;;;;;;34.58;13.48;;;4.30;85.40;;;;;;5032236;28;20110;-71
2021/04/04 05:03:49;;;;;;;45.97;14.05;;;4.20;85.40;;;;;;5022562;28;20041;-71
2021/04/04 05:06:15;;;;;;;39.38;13.90;;;4.20;85.60;;;;;;5030899;28;20017;-71
2021/04/04 05:08:45;;;;;;;47.35;13.35;;;4.20;85.50;;;;;;5033906;28;20113;-71
2021/04/04 05:11:17;;;;;;;39.78;14.02;;;4.20;85.60;;;;;;5047538;28;20048;-75
2021/04/04 05:13:43;;;;;;;38.20;13.55;;;4.20;85.70;;;;;;5024451;28;20034;-75
2021/04/04 05:16:09;;;;;;;43.20;13.95;;;4.20;85.70;;;;;;5033634;28;20073;-71
2021/04/04 05:18:35;;;;;;;41.00;13.90;;;4.10;85.90;;;;;;5036196;28;20025;-71
2021/04/04 05:21:01;;;;;;;43.58;14.88;;;4.10;85.80;;;;;;5036066;28;20392;-75
2021/04/04 05:23:27;;;;;;;34.95;14.27;;;4.00;86.20;;;;;;5035937;28;20496;-71
2021/04/04 05:25:54;;;;;;;46.05;15.82;;;4.00;86.50;;;;;;5035223;28;20076;-71
2021/04/04 05:28:20;;;;;;;40.53;13.82;;;3.90;86.80;;;;;;5036044;28;20028;-71
2021/04/04 05:30:45;;;;;;;31.75;13.93;;;3.80;86.90;;;;;;5035623;28;20022;-75
2021/04/04 05:33:11;;;;;;;37.08;14.65;;;3.80;87.50;;;;;;5032915;28;20057;-71
2021/04/04 05:35:42;;;;;;;46.20;14.80;;;3.70;87.50;;;;;;5033872;28;20036;-75
2021/04/04 05:38:09;;;;;;;38.67;15.82;;;3.60;87.70;;;;;;5034872;28;20477;-71
2021/04/04 05:40:35;;;;;;;37.80;15.23;;;3.60;87.90;;;;;;5035681;28;20029;-72
2021/04/04 05:43:12;;;;;;;34.80;15.30;;;3.60;87.80;;;;;;5036045;28;20408;-71
2021/04/04 05:45:51;;;;;;;46.95;16.35;;;3.50;88.20;;;;;;5035365;28;20459;-71
2021/04/04 05:48:33;;;;;;;46.80;15.88;;;3.50;88.20;;;;;;5035414;28;20029;-75
2021/04/04 05:51:20;;;;;;;41.05;15.00;;;3.60;88.50;;;;;;5035644;28;20029;-75
2021/04/04 05:54:11;;;;;;;41.80;15.38;;;3.50;88.60;;;;;;5035300;28;20021;-75
2021/04/04 05:56:59;;;;;;;39.60;15.70;;;3.60;88.80;;;;;;5032980;28;20041;-75
2021/04/04 05:59:57;;;;;;;52.60;15.48;;;3.70;88.30;;;;;;5054252;28;20037;-71
2021/04/04 06:02:35;;;;;;;44.85;16.25;;;3.70;88.40;;;;;;5035120;28;20063;-75
2021/04/04 06:05:19;;;;;;;42.75;16.27;;;3.70;88.30;;;;;;5020901;28;20077;-71
2021/04/04 06:08:00;;;;;;;38.47;15.77;;;3.80;88.20;;;;;;5033936;28;20116;-71
2021/04/04 06:10:53;;;;;;;38.05;15.40;;;3.80;88.00;;;;;;5030998;28;20095;-71
2021/04/04 06:14:04;;;;;;;32.60;16.08;;;3.90;88.10;;;;;;5035362;28;20036;-71
2021/04/04 06:17:04;;;;;;;50.95;16.92;;;3.90;88.00;;;;;;5026835;28;20025;-75
2021/04/04 06:20:01;;;;;;;40.92;15.95;;;3.90;88.00;;;;;;5032818;28;20030;-71
2021/04/04 06:22:38;;;;;;;43.55;16.63;;;4.00;87.80;;;;;;5034822;28;20053;-71
2021/04/04 06:25:09;;;;;;;46.53;17.42;;;4.00;87.70;;;;;;5023240;28;20022;-71
2021/04/04 06:27:45;;;;;;;42.55;17.05;;;4.10;87.60;;;;;;5033656;28;20022;-75
2021/04/04 06:30:20;;;;;;;44.33;16.55;;;4.20;87.40;;;;;;5034868;28;20044;-75
2021/04/04 06:33:02;;;;;;;44.53;15.80;;;4.30;87.10;;;;;;5034631;28;20053;-75
2021/04/04 06:35:39;;;;;;;43.72;16.70;;;4.40;87.10;;;;;;5034714;28;20022;-75
2021/04/04 06:38:18;;;;;;;42.22;16.45;;;4.40;86.70;;;;;;5032470;28;20025;-75
2021/04/04 06:40:59;;;;;;;46.20;16.52;;;4.50;86.70;;;;;;5034686;28;20126;-75
2021/04/04 06:43:50;;;;;;;43.92;17.35;;;4.60;86.30;;;;;;5034547;28;20021;-75
2021/04/04 06:46:43;;;;;;;39.42;15.35;;;4.70;85.90;;;;;;5031704;28;20017;-75
2021/04/04 06:49:33;;;;;;;43.85;16.27;;;4.80;85.60;;;;;;5033088;28;20018;-71
2021/04/04 06:52:27;;;;;;;33.45;15.70;;;4.80;85.40;;;;;;5034134;28;20101;-71
2021/04/04 06:55:11;;;;;;;34.28;15.68;;;4.90;85.30;;;;;;5034080;28;20080;-71
2021/04/04 06:57:53;;;;;;;49.88;15.63;;;5.00;85.10;;;;;;5023756;28;20030;-71
2021/04/04 07:00:32;;;;;;;41.58;15.13;;;5.10;84.60;;;;;;5034203;28;20408;-75
2021/04/04 07:03:10;;;;;;;40.80;16.00;;;5.20;84.20;;;;;;5032740;28;20029;-75
2021/04/04 07:05:58;;;;;;;46.15;15.60;;;5.30;84.60;;;;;;5033063;28;20040;-71
2021/04/04 07:08:24;;;;;;;43.63;15.30;;;5.40;84.10;;;;;;5033245;28;20029;-75
2021/04/04 07:11:02;;;;;;;42.08;15.82;;;5.40;83.80;;;;;;5046052;28;20052;-71
2021/04/04 07:13:46;;;;;;;50.38;17.20;;;5.50;83.30;;;;;;5022327;28;20063;-75
2021/04/04 07:16:26;;;;;;;42.65;16.08;;;5.70;83.40;;;;;;5032664;28;20036;-75
2021/04/04 07:19:03;;;;;;;44.70;16.70;;;5.80;83.00;;;;;;5021640;28;20034;-75
2021/04/04 07:22:02;;;;;;;38.13;14.88;;;5.90;82.40;;;;;;5014183;28;20496;-75
2021/04/04 07:24:48;;;;;;;35.08;15.48;;;6.10;82.50;;;;;;5030541;28;20500;-75
2021/04/04 07:27:47;;;;;;;45.03;15.77;;;6.20;81.80;;;;;;5032560;28;20014;-71
2021/04/04 07:30:51;;;;;;;39.33;14.05;;;6.40;81.30;;;;;;5033761;28;20523;-75
2021/04/04 07:33:48;;;;;;;40.95;14.68;;;6.50;80.70;;;;;;5028015;28;20033;-71
2021/04/04 07:36:16;;;;;;;43.95;14.90;;;6.60;79.50;;;;;;5033377;28;20051;-72
2021/04/04 07:38:56;;;;;;;37.17;14.15;;;6.80;79.00;;;;;;5032159;28;20026;-71
2021/04/04 07:41:49;;;;;;;35.03;14.82;;;6.90;78.90;;;;;;5033291;28;20116;-71
2021/04/04 07:44:35;;;;;;;39.60;14.68;;;7.20;78.00;;;;;;5033441;28;20029;-75
2021/04/04 07:47:36;;;;;;;39.97;15.10;;;7.30;77.40;;;;;;5032646;28;20029;-75
2021/04/04 07:50:05;;;;;;;33.03;12.57;;;7.50;76.40;;;;;;5031329;28;20042;-72
2021/04/04 07:52:43;;;;;;;37.60;13.38;;;8.70;73.20;;;;;;5024231;28;20022;-72
2021/04/04 07:55:12;;;;;;;29.65;12.52;;;11.70;61.10;;;;;;5030037;28;20095;-72
2021/04/04 07:58:03;;;;;;;30.98;12.30;;;13.60;52.80;;;;;;5033286;28;20033;-73
2021/04/04 08:00:31;;;;;;;27.08;11.68;;;14.60;49.40;;;;;;5032591;28;20030;-76
2021/04/04 08:03:08;;;;;;;26.60;11.98;;;15.60;46.60;;;;;;5058670;28;20104;-73
2021/04/04 08:05:40;;;;;;;24.90;10.60;;;16.50;43.90;;;;;;5033266;28;20472;-72
2021/04/04 08:08:08;;;;;;;25.25;11.13;;;17.50;42.80;;;;;;5022622;28;20018;-76
2021/04/04 08:10:55;;;;;;;24.48;10.75;;;17.90;40.70;;;;;;5042753;28;20063;-77
2021/04/04 08:13:36;;;;;;;25.83;10.85;;;18.30;39.60;;;;;;5031920;28;20496;-73
2021/04/04 08:16:09;;;;;;;25.95;10.27;;;18.20;38.40;;;;;;5034432;28;20488;-77
2021/04/04 08:18:50;;;;;;;20.75;9.32;;;18.40;38.40;;;;;;5130524;27;20122;-72
2021/04/04 08:21:34;;;;;;;23.10;9.75;;;19.50;36.70;;;;;;5125760;28;20059;-75
2021/04/04 08:24:17;;;;;;;23.20;8.90;;;19.80;36.00;;;;;;5123364;28;20547;-75
2021/04/04 08:26:48;;;;;;;21.83;8.77;;;19.60;36.00;;;;;;5109834;28;20027;-76
2021/04/04 08:29:20;;;;;;;24.95;9.80;;;19.70;34.60;;;;;;5113626;28;20033;-76
2021/04/04 08:31:52;;;;;;;23.45;9.65;;;19.90;34.40;;;;;;5118316;28;20026;-72
2021/04/04 08:34:29;;;;;;;18.15;8.93;;;20.00;34.60;;;;;;5123353;28;20073;-76
2021/04/04 08:37:02;;;;;;;23.17;9.75;;;20.40;34.30;;;;;;5109488;28;20081;-72
2021/04/04 08:39:31;;;;;;;21.23;9.23;;;20.70;33.80;;;;;;5117551;28;20016;-76
2021/04/04 08:42:00;;;;;;;24.13;9.90;;;20.40;34.40;;;;;;5115022;28;20024;-72
2021/04/04 08:44:40;;;;;;;20.63;9.35;;;20.70;33.20;;;;;;5111837;28;20040;-76
2021/04/04 08:47:29;;;;;;;20.80;9.20;;;18.90;35.70;;;;;;5127685;28;20107;-75
2021/04/04 08:49:57;;;;;;;24.52;8.77;;;18.60;39.80;;;;;;5123226;28;20547;-75
2021/04/04 08:52:31;;;;;;;20.63;9.13;;;19.90;36.30;;;;;;5108288;28;20440;-76
2021/04/04 08:54:56;;;;;;;17.95;8.65;;;20.40;34.00;;;;;;5097465;28;20024;-76
2021/04/04 08:57:30;;;;;;;24.80;9.02;;;20.80;33.30;;;;;;5129996;28;20122;-72
2021/04/04 08:59:56;;;;;;;21.23;9.35;;;21.40;32.10;;;;;;5130247;28;20023;-72
2021/04/04 09:02:26;;;;;;;18.45;8.80;;;21.70;31.80;;;;;;5129869;28;20504;-72
2021/04/04 09:05:03;;;;;;;20.15;9.10;;;21.20;32.50;;;;;;5115906;28;20026;-76
2021/04/04 09:07:34;;;;;;;21.52;9.52;;;21.20;32.60;;;;;;5116851;28;20039;-76
2021/04/04 09:10:01;;;;;;;17.52;8.25;;;22.50;31.20;;;;;;5126032;28;20081;-73
2021/04/04 09:12:33;;;;;;;18.48;9.43;;;23.10;29.90;;;;;;5129499;28;20069;-76
2021/04/04 09:15:05;;;;;;;18.20;8.38;;;22.60;30.30;;;;;;5084947;28;20108;-76
2021/04/04 09:17:31;;;;;;;18.58;8.70;;;23.20;29.50;;;;;;5114102;28;20077;-76
2021/04/04 09:20:03;;;;;;;19.27;8.10;;;23.30;29.30;;;;;;5121842;28;20024;-76
2021/04/04 09:22:29;;;;;;;19.58;8.50;;;23.40;30.50;;;;;;5110481;28;20095;-73
2021/04/04 09:25:08;;;;;;;15.48;7.53;;;23.20;29.20;;;;;;5128821;28;20466;-73
2021/04/04 09:27:48;;;;;;;16.35;7.85;;;23.00;29.60;;;;;;5123804;28;20032;-76
2021/04/04 09:30:23;;;;;;;16.10;7.35;;;22.80;30.00;;;;;;5107851;28;20389;-73
2021/04/04 09:32:53;;;;;;;21.25;8.65;;;23.20;29.20;;;;;;5081442;28;20020;-77
2021/04/04 09:35:21;;;;;;;15.32;7.57;;;23.30;29.00;;;;;;5091041;28;20085;-72
2021/04/04 09:37:48;;;;;;;18.10;7.80;;;22.70;29.30;;;;;;5106912;28;20478;-73
2021/04/04 09:40:17;;;;;;;20.58;8.18;;;23.10;30.90;;;;;;5109132;28;20012;-73
2021/04/04 09:42:43;;;;;;;20.58;8.15;;;23.00;29.00;;;;;;5115628;28;20015;-76
2021/04/04 09:45:22;;;;;;;15.88;6.68;;;23.20;28.90;;;;;;5103597;28;20024;-73
2021/04/04 09:47:53;;;;;;;16.45;7.60;;;23.50;29.20;;;;;;5110780;28;20106;-77
2021/04/04 09:50:21;;;;;;;15.50;7.28;;;23.20;28.70;;;;;;5098299;28;20490;-77
2021/04/04 09:52:47;;;;;;;14.20;7.07;;;23.40;28.10;;;;;;5114846;28;20031;-73
2021/04/04 09:55:19;;;;;;;15.50;7.13;;;23.50;28.70;;;;;;5101066;28;20032;-76
2021/04/04 09:57:51;;;;;;;18.13;6.28;;;23.50;28.50;;;;;;5106707;28;20020;-77
2021/04/04 10:00:20;;;;;;;12.00;6.65;;;23.90;28.10;;;;;;5114852;28;20024;-73
2021/04/04 10:02:49;;;;;;;14.45;6.22;;;24.40;28.40;;;;;;5114973;28;20028;-72
2021/04/04 10:05:34;;;;;;;15.02;7.13;;;24.10;28.00;;;;;;5115205;28;20055;-73
2021/04/04 10:08:11;;;;;;;17.05;6.78;;;23.70;27.70;;;;;;5106895;28;20104;-77
2021/04/04 10:10:38;;;;;;;16.63;6.57;;;24.00;28.40;;;;;;5114853;28;20019;-77
2021/04/04 10:13:04;;;;;;;13.25;6.10;;;23.80;27.90;;;;;;5114787;28;20367;-77
2021/04/04 10:15:43;;;;;;;13.40;5.90;;;23.20;28.70;;;;;;5095413;28;20419;-73
2021/04/04 10:18:09;;;;;;;13.20;5.78;;;22.90;28.90;;;;;;5104941;28;20418;-72
2021/04/04 10:20:51;;;;;;;13.57;5.97;;;22.00;29.00;;;;;;5094258;28;20023;-76
2021/04/04 10:23:18;;;;;;;14.75;5.60;;;20.70;31.40;;;;;;5090163;28;20501;-76
2021/04/04 10:26:04;;;;;;;12.75;5.38;;;20.10;33.70;;;;;;5110472;28;20017;-72
2021/04/04 10:29:04;;;;;;;12.52;4.88;;;19.80;33.10;;;;;;5094716;28;20115;-72
2021/04/04 10:31:49;;;;;;;9.52;4.90;;;19.00;34.30;;;;;;5076089;28;20031;-76
2021/04/04 10:34:14;;;;;;;13.43;4.53;;;19.10;34.40;;;;;;5091415;28;20042;-76
2021/04/04 10:36:40;;;;;;;16.25;5.32;;;19.00;34.80;;;;;;5084093;28;20024;-76
2021/04/04 10:39:20;;;;;;;12.38;4.28;;;18.40;33.30;;;;;;5091335;28;20126;-72
2021/04/04 10:41:47;;;;;;;12.82;4.55;;;18.20;34.40;;;;;;5106926;28;20024;-76
2021/04/04 10:44:23;;;;;;;14.60;4.65;;;18.30;34.90;;;;;;5109363;28;20118;-76
2021/04/04 10:46:49;;;;;;;12.82;4.43;;;18.50;34.40;;;;;;5093868;28;20034;-73
2021/04/04 10:49:15;;;;;;;13.73;4.68;;;18.60;35.20;;;;;;5102660;28;20596;-76
2021/04/04 10:51:42;;;;;;;9.65;4.22;;;18.70;34.50;;;;;;5097704;28;20028;-72
2021/04/04 10:54:08;;;;;;;11.30;4.32;;;18.70;35.60;;;;;;5093764;28;20024;-73
2021/04/04 10:56:37;;;;;;;11.02;4.10;;;19.00;35.40;;;;;;5109149;28;20027;-76
2021/04/04 10:59:05;;;;;;;10.40;4.28;;;19.30;34.00;;;;;;5114049;28;20020;-72
2021/04/04 11:01:31;;;;;;;13.70;4.40;;;19.00;34.30;;;;;;5114031;28;20457;-72
2021/04/04 11:03:57;;;;;;;12.55;4.90;;;18.70;33.30;;;;;;5104526;28;20027;-72
2021/04/04 11:06:23;;;;;;;13.32;5.05;;;18.50;35.40;;;;;;5107237;28;20032;-76
2021/04/04 11:08:49;;;;;;;13.35;4.43;;;18.50;34.70;;;;;;5091280;28;20038;-76
2021/04/04 11:11:15;;;;;;;11.73;4.90;;;18.50;34.20;;;;;;5109245;28;20501;-72
2021/04/04 11:13:44;;;;;;;16.88;4.72;;;18.50;34.20;;;;;;5112112;28;20057;-76
2021/04/04 11:16:11;;;;;;;10.30;4.25;;;18.50;35.00;;;;;;5081644;28;20074;-76
2021/04/04 11:18:50;;;;;;;11.43;3.97;;;18.40;36.50;;;;;;5100995;28;20076;-72
2021/04/04 11:21:28;;;;;;;9.38;3.90;;;18.80;34.20;;;;;;5113431;28;20030;-72
2021/04/04 11:23:54;;;;;;;9.05;3.55;;;19.00;34.10;;;;;;5112373;28;20011;-72
2021/04/04 11:26:23;;;;;;;11.98;3.90;;;18.40;35.40;;;;;;5091841;28;20076;-72
2021/04/04 11:29:16;;;;;;;10.75;3.75;;;18.50;35.50;;;;;;5113514;28;20024;-76
2021/04/04 11:31:48;;;;;;;7.37;2.77;;;18.70;37.40;;;;;;5065835;28;20490;-72
2021/04/04 11:34:31;;;;;;;8.57;3.20;;;18.30;33.50;;;;;;5095224;28;20512;-72
2021/04/04 11:36:58;;;;;;;10.73;3.45;;;18.10;34.90;;;;;;5091287;28;20031;-73
2021/04/04 11:39:24;;;;;;;12.23;3.33;;;18.00;35.00;;;;;;5098876;28;20049;-76
2021/04/04 11:41:56;;;;;;;8.57;3.50;;;18.00;34.90;;;;;;5099465;28;20024;-76
2021/04/04 11:44:23;;;;;;;12.02;3.20;;;17.80;37.10;;;;;;5100641;28;20478;-72
2021/04/04 11:46:51;;;;;;;12.75;3.42;;;18.10;36.10;;;;;;5113095;28;20073;-72
2021/04/04 11:49:50;;;;;;;10.05;3.78;;;18.20;34.20;;;;;;5103493;28;20027;-72
2021/04/04 11:52:16;;;;;;;10.88;3.50;;;17.90;34.00;;;;;;5105611;28;20030;-76
2021/04/04 11:54:44;;;;;;;13.15;3.53;;;17.90;35.80;;;;;;5096603;28;20394;-76
2021/04/04 11:57:20;;;;;;;8.18;3.53;;;17.80;34.10;;;;;;5099486;28;20088;-72
2021/04/04 11:59:48;;;;;;;11.13;3.80;;;17.80;35.70;;;;;;5113046;28;20020;-72
2021/04/04 12:02:16;;;;;;;10.90;3.95;;;17.70;35.60;;;;;;5112640;28;20027;-76
2021/04/04 12:04:47;;;;;;;13.35;3.30;;;17.80;36.20;;;;;;5098568;28;20013;-72
2021/04/04 12:07:17;;;;;;;9.80;3.40;;;17.70;35.80;;;;;;5084388;28;20066;-76
2021/04/04 12:09:46;;;;;;;9.50;3.25;;;17.80;35.50;;;;;;5077313;28;20034;-73
2021/04/04 12:12:12;;;;;;;10.57;4.05;;;17.60;36.60;;;;;;5112748;28;20462;-72
2021/04/04 12:14:55;;;;;;;14.05;3.70;;;17.60;36.00;;;;;;5112744;28;20110;-72
2021/04/04 12:17:26;;;;;;;10.30;4.20;;;17.70;36.80;;;;;;5112283;28;20081;-72
2021/04/04 12:19:52;;;;;;;10.35;3.45;;;17.70;36.20;;;;;;5104949;28;20039;-76
2021/04/04 12:22:19;;;;;;;15.65;3.70;;;17.80;36.70;;;;;;5107904;28;20020;-72
2021/04/04 12:24:52;;;;;;;12.25;3.85;;;18.00;38.10;;;;;;5098252;28;20049;-72
2021/04/04 12:27:25;;;;;;;11.18;3.53;;;18.00;37.50;;;;;;5110140;28;20019;-72
2021/04/04 12:29:54;;;;;;;12.27;3.00;;;18.20;37.20;;;;;;5112965;28;20050;-72
2021/04/04 12:32:23;;;;;;;14.60;3.60;;;18.30;36.70;;;;;;5096034;28;20034;-76
2021/04/04 12:34:55;;;;;;;12.20;3.67;;;18.30;35.80;;;;;;5092137;28;20028;-72
2021/04/04 12:37:24;;;;;;;12.23;3.33;;;18.20;36.40;;;;;;5090817;28;20028;-72
2021/04/04 12:39:52;;;;;;;10.25;3.10;;;17.90;36.20;;;;;;5102935;28;20489;-72
2021/04/04 12:42:26;;;;;;;7.55;3.28;;;18.10;35.50;;;;;;5112462;28;20046;-72
2021/04/04 12:44:51;;;;;;;9.32;3.15;;;18.10;35.10;;;;;;5102127;28;20021;-76
2021/04/04 12:47:20;;;;;;;12.60;3.33;;;18.20;35.30;;;;;;5105756;28;20024;-75
2021/04/04 12:49:56;;;;;;;11.20;3.55;;;18.30;37.60;;;;;;5104322;28;20474;-72
2021/04/04 12:52:36;;;;;;;10.43;3.70;;;18.30;34.80;;;;;;5104448;28;20051;-72
2021/04/04 12:55:26;;;;;;;11.65;3.45;;;18.30;36.50;;;;;;5098897;28;20039;-72
2021/04/04 12:57:58;;;;;;;8.25;3.15;;;18.50;34.90;;;;;;5091360;28;20043;-76
2021/04/04 13:00:30;;;;;;;10.07;3.28;;;18.60;34.70;;;;;;5094162;28;20102;-76
2021/04/04 13:03:03;;;;;;;9.98;3.30;;;18.80;33.80;;;;;;5086864;28;20024;-72
2021/04/04 13:05:52;;;;;;;12.18;3.35;;;18.60;34.80;;;;;;5104197;28;20020;-72